createdAt,value
2022-09-17T00:01:33.386Z,15.51
2022-09-17T00:04:04.277Z,15.51
2022-09-17T00:06:35.350Z,15.49
2022-09-17T00:09:06.615Z,15.50
2022-09-17T00:11:37.000Z,15.49
2022-09-17T00:14:07.812Z,15.48
2022-09-17T00:16:42.687Z,15.51
2022-09-17T00:19:15.633Z,15.54
2022-09-17T00:21:43.943Z,15.55
2022-09-17T00:24:14.157Z,15.52
2022-09-17T00:26:42.805Z,15.47
2022-09-17T00:29:11.229Z,15.41
2022-09-17T00:31:39.872Z,15.34
2022-09-17T00:34:07.972Z,15.27
2022-09-17T00:36:37.923Z,15.24
2022-09-17T00:39:08.328Z,15.27
2022-09-17T00:41:38.019Z,15.29
2022-09-17T00:44:36.960Z,15.31
2022-09-17T00:47:05.643Z,15.32
2022-09-17T00:49:33.604Z,15.32
2022-09-17T00:52:15.668Z,15.27
2022-09-17T00:54:49.559Z,15.16
2022-09-17T00:57:18.486Z,15.03
2022-09-17T00:59:46.568Z,14.94
2022-09-17T01:02:16.151Z,14.86
2022-09-17T01:04:44.144Z,14.82
2022-09-17T01:07:19.657Z,14.76
2022-09-17T01:10:00.125Z,14.71
2022-09-17T01:12:46.680Z,14.67
2022-09-17T01:15:41.855Z,14.57
2022-09-17T01:18:28.486Z,14.45
2022-09-17T01:21:14.368Z,14.38
2022-09-17T01:24:03.081Z,14.30
2022-09-17T01:26:50.330Z,14.21
2022-09-17T01:29:39.881Z,14.10
2022-09-17T01:32:13.488Z,13.97
2022-09-17T01:34:59.603Z,13.87
2022-09-17T01:37:40.662Z,13.74
2022-09-17T01:40:24.516Z,13.63
2022-09-17T01:43:08.672Z,13.55
2022-09-17T01:46:19.802Z,13.50
2022-09-17T01:48:52.015Z,13.45
2022-09-17T01:51:24.266Z,13.45
2022-09-17T01:54:01.925Z,13.48
2022-09-17T01:56:41.753Z,13.53
2022-09-17T01:59:14.220Z,13.58
2022-09-17T02:02:32.064Z,13.60
2022-09-17T02:05:09.357Z,13.60
2022-09-17T02:07:47.405Z,13.60
2022-09-17T02:10:20.216Z,13.62
2022-09-17T02:13:00.482Z,13.61
2022-09-17T02:15:35.198Z,13.61
2022-09-17T02:18:15.145Z,13.65
2022-09-17T02:20:48.538Z,13.69
2022-09-17T02:23:23.602Z,13.69
2022-09-17T02:26:08.587Z,13.69
2022-09-17T02:28:46.218Z,13.67
2022-09-17T02:31:14.904Z,13.55
2022-09-17T02:33:47.349Z,13.44
2022-09-17T02:36:15.509Z,13.38
2022-09-17T02:38:46.881Z,13.35
2022-09-17T02:41:23.220Z,13.31
2022-09-17T02:44:18.505Z,13.25
2022-09-17T02:46:58.561Z,13.15
2022-09-17T02:50:30.887Z,13.06
2022-09-17T02:53:28.926Z,12.97
2022-09-17T02:56:07.087Z,12.91
2022-09-17T02:58:45.812Z,12.85
2022-09-17T03:01:22.604Z,12.81
2022-09-17T03:03:53.241Z,12.77
2022-09-17T03:06:21.239Z,12.72
2022-09-17T03:08:49.319Z,12.65
2022-09-17T03:11:17.211Z,12.58
2022-09-17T03:13:45.174Z,12.52
2022-09-17T03:16:13.187Z,12.48
2022-09-17T03:18:41.037Z,12.48
2022-09-17T03:21:09.270Z,12.46
2022-09-17T03:23:37.480Z,12.45
2022-09-17T03:26:05.652Z,12.45
2022-09-17T03:28:33.699Z,12.47
2022-09-17T03:31:01.844Z,12.48
2022-09-17T03:33:29.824Z,12.49
2022-09-17T03:35:57.782Z,12.52
2022-09-17T03:38:25.819Z,12.54
2022-09-17T03:41:01.439Z,12.58
2022-09-17T03:43:29.886Z,12.63
2022-09-17T03:45:57.778Z,12.69
2022-09-17T03:48:25.900Z,12.74
2022-09-17T03:50:53.802Z,12.79
2022-09-17T03:53:21.690Z,12.85
2022-09-17T03:55:50.209Z,12.89
2022-09-17T03:58:18.065Z,12.94
2022-09-17T04:00:53.299Z,12.99
2022-09-17T04:03:24.097Z,13.01
2022-09-17T04:05:52.215Z,13.02
2022-09-17T04:08:20.158Z,13.05
2022-09-17T04:10:48.783Z,13.07
2022-09-17T04:13:16.836Z,13.04
2022-09-17T04:15:46.408Z,13.03
2022-09-17T04:18:14.743Z,12.97
2022-09-17T04:20:43.254Z,12.91
2022-09-17T04:23:14.386Z,12.86
2022-09-17T04:25:42.639Z,12.80
2022-09-17T04:28:10.913Z,12.75
2022-09-17T04:30:39.308Z,12.68
2022-09-17T04:33:07.136Z,12.61
2022-09-17T04:35:35.409Z,12.53
2022-09-17T04:38:03.510Z,12.47
2022-09-17T04:40:31.491Z,12.42
2022-09-17T04:43:03.099Z,12.40
2022-09-17T04:45:33.685Z,12.36
2022-09-17T04:48:02.298Z,12.30
2022-09-17T04:50:30.752Z,12.25
2022-09-17T04:52:58.804Z,12.19
2022-09-17T04:55:27.493Z,12.13
2022-09-17T04:57:55.861Z,12.10
2022-09-17T05:00:24.279Z,12.08
2022-09-17T05:02:55.099Z,12.05
2022-09-17T05:05:23.999Z,12.03
2022-09-17T05:07:52.101Z,12.01
2022-09-17T05:10:22.719Z,12.00
2022-09-17T05:12:52.113Z,12.02
2022-09-17T05:15:20.327Z,12.00
2022-09-17T05:17:48.510Z,11.99
2022-09-17T05:20:17.826Z,12.01
2022-09-17T05:22:51.513Z,12.01
2022-09-17T05:25:24.592Z,12.00
2022-09-17T05:28:14.748Z,12.02
2022-09-17T05:31:28.089Z,12.03
2022-09-17T05:34:55.996Z,12.03
2022-09-17T05:38:39.548Z,12.05
2022-09-17T05:42:08.138Z,12.02
2022-09-17T05:45:37.351Z,12.02
2022-09-17T05:49:25.928Z,12.02
2022-09-17T05:53:14.792Z,12.01
2022-09-17T05:56:08.250Z,12.02
2022-09-17T05:59:37.894Z,12.06
2022-09-17T06:03:26.715Z,12.07
2022-09-17T06:07:15.574Z,12.06
2022-09-17T06:11:02.518Z,12.01
2022-09-17T06:14:50.659Z,11.99
2022-09-17T06:17:59.120Z,11.98
2022-09-17T06:21:18.917Z,11.97
2022-09-17T06:23:53.521Z,12.01
2022-09-17T06:26:52.677Z,12.10
2022-09-17T06:29:21.556Z,12.16
2022-09-17T06:31:51.322Z,12.21
2022-09-17T06:34:40.596Z,12.24
2022-09-17T06:37:10.793Z,12.27
2022-09-17T06:39:40.197Z,12.31
2022-09-17T06:42:08.852Z,12.35
2022-09-17T06:44:36.769Z,12.37
2022-09-17T06:47:04.864Z,12.37
2022-09-17T06:49:32.827Z,12.37
2022-09-17T06:52:00.771Z,12.40
2022-09-17T06:54:28.739Z,12.42
2022-09-17T06:56:56.876Z,12.46
2022-09-17T06:59:25.599Z,12.47
2022-09-17T07:01:53.502Z,12.48
2022-09-17T07:04:21.503Z,12.48
2022-09-17T07:06:49.495Z,12.47
2022-09-17T07:09:17.547Z,12.46
2022-09-17T07:11:46.260Z,12.44
2022-09-17T07:14:14.209Z,12.43
2022-09-17T07:16:42.191Z,12.42
2022-09-17T07:19:11.164Z,12.40
2022-09-17T07:21:39.663Z,12.34
2022-09-17T07:24:08.377Z,12.28
2022-09-17T07:26:36.392Z,12.23
2022-09-17T07:29:07.375Z,12.26
2022-09-17T07:31:35.429Z,12.31
2022-09-17T07:34:04.596Z,12.38
2022-09-17T07:36:32.592Z,12.46
2022-09-17T07:39:00.539Z,12.48
2022-09-17T07:41:28.622Z,12.49
2022-09-17T07:43:57.337Z,12.46
2022-09-17T07:46:26.222Z,12.46
2022-09-17T07:48:54.327Z,12.52
2022-09-17T07:51:25.103Z,12.55
2022-09-17T07:53:58.136Z,12.60
2022-09-17T07:56:28.296Z,12.63
2022-09-17T07:58:56.404Z,12.70
2022-09-17T08:01:24.612Z,12.78
2022-09-17T08:03:54.343Z,12.84
2022-09-17T08:06:26.263Z,12.93
2022-09-17T08:08:58.885Z,13.02
2022-09-17T08:11:51.646Z,13.09
2022-09-17T08:14:16.663Z,13.17
2022-09-17T08:16:46.482Z,13.24
2022-09-17T08:19:14.430Z,13.29
2022-09-17T08:21:42.380Z,13.33
2022-09-17T08:24:10.480Z,13.34
2022-09-17T08:26:39.877Z,13.34
2022-09-17T08:29:08.219Z,13.35
2022-09-17T08:31:36.352Z,13.33
2022-09-17T08:34:09.050Z,13.29
2022-09-17T08:36:37.878Z,13.27
2022-09-17T08:39:06.128Z,13.26
2022-09-17T08:41:40.241Z,13.25
2022-09-17T08:44:38.328Z,13.27
2022-09-17T08:47:18.582Z,13.31
2022-09-17T08:49:56.576Z,13.33
2022-09-17T08:52:53.909Z,13.39
2022-09-17T08:55:29.248Z,13.49
2022-09-17T08:58:31.173Z,13.56
2022-09-17T09:01:28.096Z,13.63
2022-09-17T09:04:35.353Z,13.68
2022-09-17T09:07:17.416Z,13.70
2022-09-17T09:09:51.799Z,13.71
2022-09-17T09:12:26.710Z,13.72
2022-09-17T09:15:01.186Z,13.74
2022-09-17T09:17:41.546Z,13.80
2022-09-17T09:20:22.295Z,13.90
2022-09-17T09:22:53.112Z,13.99
2022-09-17T09:25:27.251Z,14.08
2022-09-17T09:28:16.820Z,14.13
2022-09-17T09:30:48.153Z,14.20
2022-09-17T09:33:19.497Z,14.25
2022-09-17T09:35:47.537Z,14.31
2022-09-17T09:38:30.861Z,14.36
2022-09-17T09:41:23.637Z,14.45
2022-09-17T09:44:04.830Z,14.55
2022-09-17T09:46:42.582Z,14.63
2022-09-17T09:49:29.523Z,14.69
2022-09-17T09:52:06.084Z,14.78
2022-09-17T09:54:43.099Z,14.87
2022-09-17T09:57:15.964Z,14.97
2022-09-17T09:59:43.894Z,15.02
2022-09-17T10:02:12.027Z,15.05
2022-09-17T10:04:40.126Z,15.03
2022-09-17T10:07:11.301Z,15.02
2022-09-17T10:09:46.055Z,15.06
2022-09-17T10:12:13.835Z,15.10
2022-09-17T10:14:44.611Z,15.13
2022-09-17T10:17:19.386Z,15.20
2022-09-17T10:20:22.914Z,15.27
2022-09-17T10:22:51.405Z,15.34
2022-09-17T10:25:29.655Z,15.40
2022-09-17T10:27:59.923Z,15.44
2022-09-17T10:30:28.477Z,15.43
2022-09-17T10:33:26.448Z,15.46
2022-09-17T10:36:10.270Z,15.59
2022-09-17T10:38:40.598Z,15.79
2022-09-17T10:41:14.565Z,15.93
2022-09-17T10:43:42.817Z,16.05
2022-09-17T10:46:15.413Z,16.16
2022-09-17T10:48:46.787Z,16.22
2022-09-17T10:51:23.215Z,16.22
2022-09-17T10:54:06.172Z,16.28
2022-09-17T10:56:40.161Z,16.36
2022-09-17T10:59:29.617Z,16.36
2022-09-17T11:02:21.328Z,16.23
2022-09-17T11:05:02.775Z,16.17
2022-09-17T11:07:56.731Z,16.12
2022-09-17T11:10:43.496Z,16.15
2022-09-17T11:13:35.082Z,16.08
2022-09-17T11:16:21.157Z,16.03
2022-09-17T11:18:58.531Z,16.05
2022-09-17T11:21:45.514Z,16.11
2022-09-17T11:24:32.212Z,16.19
2022-09-17T11:27:09.010Z,16.23
2022-09-17T11:29:57.760Z,16.23
2022-09-17T11:32:43.804Z,16.30
2022-09-17T11:35:17.097Z,16.38
2022-09-17T11:38:18.319Z,16.39
2022-09-17T11:41:08.089Z,16.43
2022-09-17T11:43:46.531Z,16.50
2022-09-17T11:46:26.113Z,16.47
2022-09-17T11:49:06.360Z,16.37
2022-09-17T11:51:36.620Z,16.25
2022-09-17T11:54:26.153Z,16.11
2022-09-17T11:57:09.621Z,16.00
2022-09-17T11:59:37.782Z,16.01
2022-09-17T12:02:18.855Z,16.10
2022-09-17T12:05:06.869Z,16.32
2022-09-17T12:08:04.150Z,16.43
2022-09-17T12:10:32.332Z,16.53
2022-09-17T12:13:09.869Z,16.62
2022-09-17T12:15:41.892Z,16.67
2022-09-17T12:18:38.678Z,16.67
2022-09-17T12:21:10.656Z,16.67
2022-09-17T12:23:46.146Z,16.59
2022-09-17T12:26:17.020Z,16.44
2022-09-17T12:29:19.737Z,16.31
2022-09-17T12:31:57.179Z,16.17
2022-09-17T12:35:02.216Z,16.13
2022-09-17T12:38:10.127Z,16.09
2022-09-17T12:40:43.865Z,16.13
2022-09-17T12:43:17.602Z,16.20
2022-09-17T12:46:07.685Z,16.28
2022-09-17T12:49:07.464Z,16.37
2022-09-17T12:51:52.161Z,16.41
2022-09-17T12:54:43.101Z,16.41
2022-09-17T12:57:24.810Z,16.41
2022-09-17T13:00:07.412Z,16.40
2022-09-17T13:02:51.615Z,16.40
2022-09-17T13:05:22.511Z,16.39
2022-09-17T13:08:16.439Z,16.36
2022-09-17T13:10:50.312Z,16.36
2022-09-17T13:13:48.452Z,16.41
2022-09-17T13:16:34.497Z,16.45
2022-09-17T13:19:19.116Z,16.36
2022-09-17T13:21:55.857Z,16.23
2022-09-17T13:24:27.168Z,16.10
2022-09-17T13:26:56.103Z,15.99
2022-09-17T13:29:46.239Z,15.90
2022-09-17T13:32:32.406Z,15.79
2022-09-17T13:35:06.673Z,15.80
2022-09-17T13:37:37.566Z,15.86
2022-09-17T13:40:22.655Z,15.91
2022-09-17T13:43:10.352Z,15.98
2022-09-17T13:46:00.149Z,16.04
2022-09-17T13:48:34.843Z,16.10
2022-09-17T13:51:30.609Z,16.13
2022-09-17T13:54:02.841Z,16.19
2022-09-17T13:56:43.147Z,16.28
2022-09-17T13:59:19.546Z,16.37
2022-09-17T14:01:53.618Z,16.40
2022-09-17T14:04:40.562Z,16.39
2022-09-17T14:07:33.630Z,16.42
2022-09-17T14:10:16.760Z,16.43
2022-09-17T14:12:57.864Z,16.41
2022-09-17T14:15:57.645Z,16.42
2022-09-17T14:18:28.596Z,16.44
2022-09-17T14:21:08.219Z,16.39
2022-09-17T14:23:44.811Z,16.35
2022-09-17T14:26:16.736Z,16.28
2022-09-17T14:29:00.379Z,16.17
2022-09-17T14:31:34.367Z,16.06
2022-09-17T14:34:05.192Z,16.03
2022-09-17T14:36:38.339Z,16.02
2022-09-17T14:39:22.205Z,16.01
2022-09-17T14:41:52.774Z,15.95
2022-09-17T14:44:24.403Z,15.91
2022-09-17T14:47:00.671Z,15.88
2022-09-17T14:49:32.641Z,15.85
2022-09-17T14:52:02.015Z,15.82
2022-09-17T14:54:35.795Z,15.81
2022-09-17T14:57:27.082Z,15.81
2022-09-17T14:59:57.311Z,15.78
2022-09-17T15:02:37.057Z,15.79
2022-09-17T15:05:24.278Z,15.77
2022-09-17T15:07:52.239Z,15.72
2022-09-17T15:10:22.125Z,15.67
2022-09-17T15:12:51.655Z,15.63
2022-09-17T15:15:22.987Z,15.61
2022-09-17T15:17:52.145Z,15.58
2022-09-17T15:20:23.916Z,15.58
2022-09-17T15:23:16.264Z,15.58
2022-09-17T15:25:47.365Z,15.55
2022-09-17T15:28:42.616Z,15.54
2022-09-17T15:31:18.252Z,15.56
2022-09-17T15:33:47.324Z,15.56
2022-09-17T15:36:22.597Z,15.55
2022-09-17T15:38:51.604Z,15.53
2022-09-17T15:41:30.390Z,15.54
2022-09-17T15:44:32.134Z,15.55
2022-09-17T15:47:54.647Z,15.55
2022-09-17T15:50:25.208Z,15.55
2022-09-17T15:53:26.717Z,15.57
2022-09-17T15:56:13.092Z,15.57
2022-09-17T15:58:40.965Z,15.58
2022-09-17T16:01:11.889Z,15.61
2022-09-17T16:03:39.751Z,15.62
2022-09-17T16:06:19.835Z,15.62
2022-09-17T16:08:58.795Z,15.63
2022-09-17T16:11:32.948Z,15.61
2022-09-17T16:14:01.614Z,15.59
2022-09-17T16:16:36.763Z,15.56
2022-09-17T16:19:06.670Z,15.48
2022-09-17T16:21:36.228Z,15.38
2022-09-17T16:24:04.053Z,15.33
2022-09-17T16:26:35.171Z,15.26
2022-09-17T16:29:07.454Z,15.17
2022-09-17T16:31:35.373Z,15.08
2022-09-17T16:34:03.617Z,15.02
2022-09-17T16:36:32.357Z,14.96
2022-09-17T16:39:01.465Z,14.90
2022-09-17T16:41:29.760Z,14.82
2022-09-17T16:43:58.621Z,14.75
2022-09-17T16:46:26.965Z,14.70
2022-09-17T16:48:54.878Z,14.64
2022-09-17T16:51:22.841Z,14.58
2022-09-17T16:53:50.835Z,14.54
2022-09-17T16:56:18.712Z,14.50
2022-09-17T16:58:46.661Z,14.47
2022-09-17T17:01:16.380Z,14.44
2022-09-17T17:03:45.845Z,14.43
2022-09-17T17:06:18.313Z,14.41
2022-09-17T17:08:46.381Z,14.37
2022-09-17T17:11:14.696Z,14.37
2022-09-17T17:13:43.696Z,14.34
2022-09-17T17:16:14.411Z,14.31
2022-09-17T17:18:44.116Z,14.28
2022-09-17T17:21:14.466Z,14.28
2022-09-17T17:23:43.949Z,14.29
2022-09-17T17:26:11.716Z,14.33
2022-09-17T17:28:39.764Z,14.37
2022-09-17T17:31:07.917Z,14.39
2022-09-17T17:33:35.800Z,14.42
2022-09-17T17:36:08.206Z,14.47
2022-09-17T17:38:37.393Z,14.51
2022-09-17T17:41:06.791Z,14.54
2022-09-17T17:43:35.587Z,14.56
2022-09-17T17:46:07.830Z,14.56
2022-09-17T17:48:36.341Z,14.57
2022-09-17T17:51:06.398Z,14.59
2022-09-17T17:53:35.018Z,14.59
2022-09-17T17:56:06.795Z,14.59
2022-09-17T17:58:36.634Z,14.59
2022-09-17T18:01:17.604Z,14.59
2022-09-17T18:03:46.175Z,14.59
2022-09-17T18:06:14.149Z,14.58
2022-09-17T18:08:43.569Z,14.56
2022-09-17T18:11:11.962Z,14.52
2022-09-17T18:13:40.131Z,14.45
2022-09-17T18:16:10.633Z,14.40
2022-09-17T18:18:45.167Z,14.36
2022-09-17T18:21:16.263Z,14.34
2022-09-17T18:23:45.244Z,14.30
2022-09-17T18:26:15.401Z,14.24
2022-09-17T18:28:43.507Z,14.20
2022-09-17T18:31:26.765Z,14.17
2022-09-17T18:34:01.412Z,14.12
2022-09-17T18:36:32.292Z,14.04
2022-09-17T18:39:56.366Z,13.96
2022-09-17T18:41:49.969Z,13.87
2022-09-17T18:44:20.666Z,13.80
2022-09-17T18:46:50.283Z,13.76
2022-09-17T18:49:18.620Z,13.76
2022-09-17T18:51:46.625Z,13.76
2022-09-17T18:54:14.577Z,13.72
2022-09-17T18:56:42.710Z,13.67
2022-09-17T18:59:10.929Z,13.66
2022-09-17T19:01:39.027Z,13.67
2022-09-17T19:04:11.380Z,13.63
2022-09-17T19:06:39.355Z,13.56
2022-09-17T19:09:07.150Z,13.52
2022-09-17T19:11:36.470Z,13.49
2022-09-17T19:14:04.527Z,13.44
2022-09-17T19:16:32.621Z,13.41
2022-09-17T19:19:00.633Z,13.45
2022-09-17T19:21:28.924Z,13.51
2022-09-17T19:23:57.397Z,13.53
2022-09-17T19:26:27.260Z,13.52
2022-09-17T19:28:58.631Z,13.47
2022-09-17T19:31:28.118Z,13.42
2022-09-17T19:33:58.616Z,13.39
2022-09-17T19:36:26.584Z,13.39
2022-09-17T19:38:54.587Z,13.41
2022-09-17T19:41:25.564Z,13.43
2022-09-17T19:43:57.231Z,13.41
2022-09-17T19:46:27.280Z,13.40
2022-09-17T19:48:57.241Z,13.32
2022-09-17T19:51:28.414Z,13.28
2022-09-17T19:53:57.247Z,13.26
2022-09-17T19:56:27.675Z,13.25
2022-09-17T19:58:56.816Z,13.24
2022-09-17T20:01:25.339Z,13.21
2022-09-17T20:03:53.372Z,13.21
2022-09-17T20:06:22.513Z,13.23
2022-09-17T20:08:52.701Z,13.27
2022-09-17T20:11:23.278Z,13.28
2022-09-17T20:14:02.939Z,13.28
2022-09-17T20:16:30.984Z,13.27
2022-09-17T20:18:58.892Z,13.25
2022-09-17T20:21:29.451Z,13.26
2022-09-17T20:23:58.428Z,13.29
2022-09-17T20:26:27.477Z,13.29
2022-09-17T20:28:55.840Z,13.28
2022-09-17T20:31:27.010Z,13.29
2022-09-17T20:33:57.264Z,13.29
2022-09-17T20:36:33.276Z,13.24
2022-09-17T20:39:21.792Z,13.20
2022-09-17T20:41:49.067Z,13.13
2022-09-17T20:44:17.986Z,13.08
2022-09-17T20:46:46.035Z,13.08
2022-09-17T20:49:14.902Z,13.09
2022-09-17T20:51:42.784Z,13.06
2022-09-17T20:54:10.807Z,13.01
2022-09-17T20:56:38.724Z,13.01
2022-09-17T20:59:18.945Z,13.00
2022-09-17T21:01:49.881Z,12.99
2022-09-17T21:04:21.897Z,12.99
2022-09-17T21:06:53.909Z,12.97
2022-09-17T21:09:21.770Z,12.94
2022-09-17T21:11:49.919Z,12.90
2022-09-17T21:14:18.491Z,12.85
2022-09-17T21:16:49.009Z,12.79
2022-09-17T21:19:17.112Z,12.75
2022-09-17T21:21:47.950Z,12.74
2022-09-17T21:24:15.953Z,12.71
2022-09-17T21:26:45.926Z,12.72
2022-09-17T21:29:14.220Z,12.75
2022-09-17T21:31:42.148Z,12.77
2022-09-17T21:34:13.464Z,12.76
2022-09-17T21:36:44.548Z,12.74
2022-09-17T21:39:15.241Z,12.70
2022-09-17T21:41:45.345Z,12.71
2022-09-17T21:44:13.791Z,12.74
2022-09-17T21:46:42.942Z,12.72
2022-09-17T21:49:13.063Z,12.73
2022-09-17T21:51:42.877Z,12.74
2022-09-17T21:54:16.262Z,12.78
2022-09-17T21:56:46.165Z,12.84
2022-09-17T21:59:16.592Z,12.89
2022-09-17T22:01:47.329Z,12.93
2022-09-17T22:04:20.895Z,12.97
2022-09-17T22:06:51.011Z,13.03
2022-09-17T22:09:24.491Z,13.06
2022-09-17T22:11:53.382Z,13.07
2022-09-17T22:14:23.873Z,13.07
2022-09-17T22:16:54.799Z,13.06
2022-09-17T22:19:24.533Z,13.08
2022-09-17T22:21:54.773Z,13.06
2022-09-17T22:24:23.775Z,12.97
2022-09-17T22:26:57.233Z,12.89
2022-09-17T22:29:30.256Z,12.83
2022-09-17T22:31:58.231Z,12.81
2022-09-17T22:34:26.843Z,12.79
2022-09-17T22:36:54.823Z,12.78
2022-09-17T22:39:22.810Z,12.80
2022-09-17T22:41:51.094Z,12.82
2022-09-17T22:44:20.251Z,12.82
2022-09-17T22:46:50.816Z,12.84
2022-09-17T22:49:19.343Z,12.87
2022-09-17T22:51:47.448Z,12.89
2022-09-17T22:54:17.287Z,12.90
2022-09-17T22:56:46.657Z,12.89
2022-09-17T22:59:15.152Z,12.85
2022-09-17T23:01:43.445Z,12.79
2022-09-17T23:04:11.376Z,12.72
2022-09-17T23:06:43.495Z,12.65
2022-09-17T23:09:14.004Z,12.57
2022-09-17T23:11:42.845Z,12.52
2022-09-17T23:14:13.234Z,12.48
2022-09-17T23:16:47.083Z,12.45
2022-09-17T23:19:18.404Z,12.46
2022-09-17T23:21:46.731Z,12.49
2022-09-17T23:24:20.390Z,12.54
2022-09-17T23:26:49.398Z,12.59
2022-09-17T23:29:17.867Z,12.61
2022-09-17T23:31:45.896Z,12.62
2022-09-17T23:34:13.828Z,12.65
2022-09-17T23:36:41.924Z,12.69
2022-09-17T23:39:11.732Z,12.68
2022-09-17T23:41:43.523Z,12.69
2022-09-17T23:44:15.839Z,12.69
2022-09-17T23:46:45.980Z,12.68
2022-09-17T23:49:15.199Z,12.66
2022-09-17T23:51:43.563Z,12.64
2022-09-17T23:54:11.523Z,12.65
2022-09-17T23:56:39.485Z,12.67
2022-09-17T23:59:10.309Z,12.66
